createdAt,value
2017-09-02T00:02:17.118Z,68.80
2017-09-02T00:04:45.996Z,69.30
2017-09-02T00:07:13.708Z,69.20
2017-09-02T00:09:42.230Z,69.80
2017-09-02T00:12:10.863Z,70.30
2017-09-02T00:14:37.357Z,72.00
2017-09-02T00:17:03.953Z,71.70
2017-09-02T00:19:35.218Z,72.10
2017-09-02T00:22:02.756Z,72.30
2017-09-02T00:24:29.809Z,72.70
2017-09-02T00:26:58.504Z,72.80
2017-09-02T00:29:28.909Z,73.50
2017-09-02T00:31:58.425Z,73.90
2017-09-02T00:34:26.197Z,74.30
2017-09-02T00:36:55.027Z,74.20
2017-09-02T00:39:23.503Z,74.20
2017-09-02T00:41:54.020Z,74.60
2017-09-02T00:44:20.680Z,75.10
2017-09-02T00:46:51.627Z,75.40
2017-09-02T00:49:20.984Z,75.40
2017-09-02T00:51:49.509Z,75.30
2017-09-02T00:54:17.783Z,75.20
2017-09-02T00:56:46.527Z,74.60
2017-09-02T00:59:15.762Z,75.30
2017-09-02T01:01:44.987Z,75.50
2017-09-02T01:04:12.297Z,75.50
2017-09-02T01:06:39.712Z,75.40
2017-09-02T01:09:07.544Z,75.80
2017-09-02T01:11:40.706Z,76.20
2017-09-02T01:14:08.110Z,77.10
2017-09-02T01:16:37.035Z,77.60
2017-09-02T01:19:04.548Z,77.80
2017-09-02T01:21:32.346Z,77.70
2017-09-02T01:23:59.629Z,77.40
2017-09-02T01:26:26.593Z,77.30
2017-09-02T01:28:54.244Z,77.30
2017-09-02T01:31:22.593Z,77.40
2017-09-02T01:33:49.165Z,77.20
2017-09-02T01:36:16.999Z,77.50
2017-09-02T01:38:45.477Z,77.70
2017-09-02T01:41:13.727Z,77.80
2017-09-02T01:43:41.240Z,77.90
2017-09-02T01:46:07.587Z,77.40
2017-09-02T01:48:34.413Z,78.00
2017-09-02T01:51:00.727Z,78.40
2017-09-02T01:53:27.194Z,78.00
2017-09-02T01:55:54.778Z,77.80
2017-09-02T01:58:22.915Z,78.70
2017-09-02T02:00:49.856Z,79.20
2017-09-02T02:03:16.447Z,80.40
2017-09-02T02:05:44.679Z,80.90
2017-09-02T02:08:15.048Z,82.80
2017-09-02T02:10:43.136Z,83.40
2017-09-02T02:13:09.920Z,83.90
2017-09-02T02:15:43.263Z,85.40
2017-09-02T02:18:09.749Z,87.10
2017-09-02T02:20:39.898Z,87.70
2017-09-02T02:23:06.563Z,89.60
2017-09-02T02:25:35.133Z,89.00
2017-09-02T02:28:03.907Z,90.00
2017-09-02T02:30:31.430Z,89.10
2017-09-02T02:33:00.927Z,88.00
2017-09-02T02:35:28.203Z,89.80
2017-09-02T02:40:32.259Z,89.60
2017-09-02T02:43:04.033Z,91.40
2017-09-02T02:45:32.151Z,91.10
2017-09-02T02:48:00.684Z,89.70
2017-09-02T02:50:27.255Z,90.80
2017-09-02T02:52:58.245Z,88.20
2017-09-02T02:55:29.567Z,90.70
2017-09-02T02:58:04.199Z,90.40
2017-09-02T03:00:34.634Z,91.30
2017-09-02T03:03:02.827Z,91.50
2017-09-02T03:05:31.870Z,91.30
2017-09-02T03:08:02.192Z,92.40
2017-09-02T03:10:28.798Z,92.10
2017-09-02T03:12:56.120Z,91.40
2017-09-02T03:15:29.571Z,91.60
2017-09-02T03:18:00.152Z,92.00
2017-09-02T03:20:27.615Z,93.00
2017-09-02T03:22:54.787Z,93.50
2017-09-02T03:25:22.212Z,94.00
2017-09-02T03:27:52.486Z,94.10
2017-09-02T03:30:20.141Z,94.30
2017-09-02T03:32:48.189Z,94.60
2017-09-02T03:35:16.454Z,94.30
2017-09-02T03:37:45.216Z,94.20
2017-09-02T03:40:14.434Z,94.10
2017-09-02T03:42:41.769Z,94.00
2017-09-02T03:45:09.152Z,94.80
2017-09-02T03:47:35.976Z,94.90
2017-09-02T03:52:37.129Z,94.80
2017-09-02T03:55:04.326Z,94.50
2017-09-02T03:57:32.904Z,94.50
2017-09-02T03:59:59.753Z,94.60
2017-09-02T04:02:26.292Z,94.80
2017-09-02T04:04:53.939Z,94.90
2017-09-02T04:07:23.850Z,94.60
2017-09-02T04:09:52.814Z,94.40
2017-09-02T04:12:19.424Z,94.30
2017-09-02T04:14:48.061Z,93.70
2017-09-02T04:17:15.548Z,94.40
2017-09-02T04:19:44.170Z,94.90
2017-09-02T04:22:11.299Z,95.10
2017-09-02T04:24:37.650Z,95.10
2017-09-02T04:27:06.031Z,95.10
2017-09-02T04:29:32.507Z,95.40
2017-09-02T04:31:58.841Z,95.00
2017-09-02T04:34:26.060Z,95.00
2017-09-02T04:36:53.332Z,94.40
2017-09-02T04:39:21.264Z,95.00
2017-09-02T04:41:48.345Z,95.20
2017-09-02T04:44:15.652Z,95.60
2017-09-02T04:46:42.126Z,95.80
2017-09-02T04:49:09.557Z,95.70
2017-09-02T04:51:36.760Z,95.90
2017-09-02T04:54:03.468Z,96.00
2017-09-02T04:56:29.775Z,96.00
2017-09-02T04:58:57.020Z,95.80
2017-09-02T05:01:23.327Z,95.90
2017-09-02T05:03:51.393Z,96.00
2017-09-02T05:06:17.796Z,95.80
2017-09-02T05:08:45.382Z,95.40
2017-09-02T05:11:12.821Z,95.20
2017-09-02T05:13:39.299Z,95.00
2017-09-02T05:16:06.508Z,95.40
2017-09-02T05:18:32.641Z,95.70
2017-09-02T05:20:59.251Z,96.00
2017-09-02T05:23:25.300Z,96.20
2017-09-02T05:25:52.540Z,96.20
2017-09-02T05:28:21.708Z,96.20
2017-09-02T05:30:48.675Z,96.30
2017-09-02T05:33:14.855Z,96.20
2017-09-02T05:35:41.043Z,96.30
2017-09-02T05:38:08.477Z,95.50
2017-09-02T05:40:34.498Z,95.60
2017-09-02T05:43:00.532Z,95.80
2017-09-02T05:45:26.519Z,96.10
2017-09-02T05:47:52.752Z,95.90
2017-09-02T05:50:18.881Z,95.70
2017-09-02T05:52:45.176Z,95.50
2017-09-02T05:55:11.276Z,95.00
2017-09-02T05:57:37.813Z,94.80
2017-09-02T06:00:04.045Z,94.40
2017-09-02T06:02:30.346Z,94.20
2017-09-02T06:04:56.819Z,94.40
2017-09-02T06:07:22.877Z,94.60
2017-09-02T06:09:48.981Z,94.60
2017-09-02T06:12:16.323Z,94.80
2017-09-02T06:14:43.023Z,94.80
2017-09-02T06:17:09.235Z,95.20
2017-09-02T06:19:35.836Z,95.10
2017-09-02T06:22:04.541Z,95.00
2017-09-02T06:24:33.189Z,95.40
2017-09-02T06:26:59.457Z,95.40
2017-09-02T06:29:26.250Z,95.20
2017-09-02T06:31:53.784Z,95.30
2017-09-02T06:34:21.716Z,95.30
2017-09-02T06:36:48.594Z,95.20
2017-09-02T06:39:17.083Z,95.40
2017-09-02T06:44:14.917Z,95.20
2017-09-02T06:46:41.153Z,95.30
2017-09-02T06:49:07.454Z,95.20
2017-09-02T06:51:33.835Z,95.10
2017-09-02T06:54:00.745Z,95.60
2017-09-02T06:56:27.160Z,95.50
2017-09-02T06:58:53.182Z,95.30
2017-09-02T07:01:19.423Z,95.20
2017-09-02T07:03:45.519Z,94.50
2017-09-02T07:06:11.548Z,94.40
2017-09-02T07:08:38.739Z,94.40
2017-09-02T07:11:04.943Z,94.80
2017-09-02T07:13:31.129Z,94.20
2017-09-02T07:15:58.045Z,94.20
2017-09-02T07:18:25.403Z,94.00
2017-09-02T07:20:52.650Z,93.90
2017-09-02T07:23:21.812Z,93.50
2017-09-02T07:25:49.452Z,93.70
2017-09-02T07:28:19.779Z,93.60
2017-09-02T07:30:46.069Z,93.50
2017-09-02T07:33:12.893Z,92.70
2017-09-02T07:35:41.039Z,91.90
2017-09-02T07:38:09.864Z,92.40
2017-09-02T07:40:37.039Z,92.70
2017-09-02T07:43:03.694Z,92.00
2017-09-02T07:45:29.877Z,91.10
2017-09-02T07:47:55.991Z,90.90
2017-09-02T07:50:22.461Z,91.20
2017-09-02T07:52:49.908Z,91.10
2017-09-02T07:55:16.552Z,91.30
2017-09-02T07:57:44.964Z,91.00
2017-09-02T08:00:11.391Z,90.20
2017-09-02T08:02:37.505Z,89.20
2017-09-02T08:05:04.069Z,88.60
2017-09-02T08:07:30.389Z,87.80
2017-09-02T08:09:56.541Z,88.10
2017-09-02T08:12:23.661Z,88.50
2017-09-02T08:14:49.956Z,88.40
2017-09-02T08:17:16.570Z,88.30
2017-09-02T08:19:42.672Z,87.50
2017-09-02T08:22:10.739Z,85.30
2017-09-02T08:24:37.147Z,83.10
2017-09-02T08:27:03.724Z,82.30
2017-09-02T08:29:30.431Z,84.90
2017-09-02T08:31:56.769Z,86.40
2017-09-02T08:34:22.971Z,87.50
2017-09-02T08:36:49.050Z,87.10
2017-09-02T08:39:15.200Z,86.80
2017-09-02T08:41:41.166Z,85.20
2017-09-02T08:44:08.176Z,82.80
2017-09-02T08:46:34.557Z,82.40
2017-09-02T08:49:02.395Z,81.70
2017-09-02T08:51:28.909Z,81.90
2017-09-02T08:53:57.946Z,82.60
2017-09-02T08:56:24.194Z,81.50
2017-09-02T08:58:51.277Z,80.20
2017-09-02T09:01:18.379Z,79.00
2017-09-02T09:03:46.306Z,79.90
2017-09-02T09:06:14.301Z,82.90
2017-09-02T09:08:43.449Z,84.00
2017-09-02T09:11:10.104Z,84.90
2017-09-02T09:13:37.635Z,84.80
2017-09-02T09:16:05.611Z,85.90
2017-09-02T09:18:31.963Z,86.80
2017-09-02T09:20:58.038Z,86.80
2017-09-02T09:23:24.023Z,86.40
2017-09-02T09:25:51.778Z,86.70
2017-09-02T09:28:18.456Z,88.10
2017-09-02T09:30:44.803Z,87.90
2017-09-02T09:33:11.700Z,87.80
2017-09-02T09:35:37.925Z,88.50
2017-09-02T09:38:06.270Z,87.60
2017-09-02T09:40:33.309Z,88.00
2017-09-02T09:42:59.308Z,89.30
2017-09-02T09:45:25.502Z,90.00
2017-09-02T09:47:52.539Z,90.00
2017-09-02T09:50:19.288Z,90.10
2017-09-02T09:52:45.254Z,89.80
2017-09-02T09:55:12.270Z,89.60
2017-09-02T09:57:38.780Z,89.70
2017-09-02T10:00:05.141Z,89.40
2017-09-02T10:02:31.797Z,89.40
2017-09-02T10:04:57.798Z,89.40
2017-09-02T10:07:23.795Z,89.80
2017-09-02T10:09:50.471Z,89.00
2017-09-02T10:12:16.458Z,89.00
2017-09-02T10:14:44.117Z,88.20
2017-09-02T10:17:11.865Z,87.70
2017-09-02T10:19:37.986Z,87.50
2017-09-02T10:22:03.995Z,86.80
2017-09-02T10:24:30.461Z,86.40
2017-09-02T10:26:57.610Z,86.50
2017-09-02T10:29:26.532Z,85.50
2017-09-02T10:31:54.972Z,85.20
2017-09-02T10:34:22.397Z,84.10
2017-09-02T10:36:48.546Z,83.10
2017-09-02T10:39:14.685Z,81.80
2017-09-02T10:41:41.900Z,80.50
2017-09-02T10:44:10.162Z,79.20
2017-09-02T10:46:36.569Z,78.40
2017-09-02T10:49:02.774Z,75.90
2017-09-02T10:51:29.336Z,74.80
2017-09-02T10:53:56.380Z,74.20
2017-09-02T10:56:22.619Z,73.00
2017-09-02T10:58:48.866Z,69.30
2017-09-02T11:01:15.471Z,70.90
2017-09-02T11:03:41.582Z,69.70
2017-09-02T11:06:08.022Z,68.70
2017-09-02T11:08:34.103Z,68.90
2017-09-02T11:11:00.116Z,68.60
2017-09-02T11:13:26.091Z,67.30
2017-09-02T11:15:52.172Z,69.30
2017-09-02T11:18:18.128Z,66.00
2017-09-02T11:20:44.216Z,66.80
2017-09-02T11:23:10.356Z,66.60
2017-09-02T11:25:37.275Z,66.90
2017-09-02T11:28:03.663Z,67.50
2017-09-02T11:30:30.947Z,69.60
2017-09-02T11:32:59.316Z,67.10
2017-09-02T11:35:25.322Z,66.20
2017-09-02T11:37:55.066Z,66.60
2017-09-02T11:40:21.787Z,66.10
2017-09-02T11:42:47.777Z,64.80
2017-09-02T11:45:14.112Z,60.00
2017-09-02T11:47:41.579Z,62.50
2017-09-02T11:50:07.950Z,64.20
2017-09-02T11:52:36.267Z,65.20
2017-09-02T11:55:02.377Z,64.80
2017-09-02T11:57:34.159Z,62.60
2017-09-02T12:00:00.793Z,61.90
2017-09-02T12:02:28.177Z,62.00
2017-09-02T12:04:54.146Z,62.60
2017-09-02T12:07:22.183Z,60.10
2017-09-02T13:06:58.465Z,51.90
2017-09-02T20:29:26.492Z,74.50
2017-09-02T20:31:55.657Z,74.50
2017-09-02T20:34:24.889Z,74.70
2017-09-02T20:36:53.211Z,74.40
2017-09-02T20:39:21.263Z,74.70
2017-09-02T20:41:50.247Z,74.60
2017-09-02T20:44:18.723Z,74.00
2017-09-02T20:46:44.911Z,74.00
2017-09-02T20:49:11.816Z,73.90
2017-09-02T20:51:38.259Z,74.40
2017-09-02T20:54:05.836Z,74.30
2017-09-02T20:56:32.764Z,74.30
2017-09-02T20:59:01.255Z,74.20
2017-09-02T21:01:28.369Z,73.90
2017-09-02T21:06:45.165Z,74.90
2017-09-02T21:09:13.377Z,76.20
2017-09-02T21:17:33.944Z,75.80
2017-09-02T21:20:00.871Z,76.30
2017-09-02T21:22:29.439Z,76.10
2017-09-02T21:24:59.762Z,75.70
2017-09-02T21:30:01.649Z,75.10
2017-09-02T21:32:31.994Z,74.20
2017-09-02T21:34:58.151Z,74.60
2017-09-02T21:37:25.073Z,74.80
2017-09-02T21:39:53.758Z,74.80
2017-09-02T21:42:21.128Z,74.70
2017-09-02T21:44:52.346Z,75.60
2017-09-02T21:47:20.880Z,76.20
2017-09-02T21:49:47.904Z,76.40
2017-09-02T21:52:13.946Z,77.10
2017-09-02T21:54:40.076Z,77.70
2017-09-02T21:57:06.331Z,77.70
2017-09-02T21:59:32.965Z,78.40
2017-09-02T22:02:00.757Z,78.70
2017-09-02T22:04:27.435Z,78.70
2017-09-02T22:06:57.739Z,78.40
2017-09-02T22:09:24.166Z,78.50
2017-09-02T22:11:50.603Z,78.80
2017-09-02T22:14:16.645Z,79.00
2017-09-02T22:16:42.651Z,78.70
2017-09-02T22:19:09.563Z,78.50
2017-09-02T22:21:36.155Z,78.50
2017-09-02T22:24:02.669Z,79.00
2017-09-02T22:26:28.712Z,79.90
2017-09-02T22:28:55.063Z,80.80
2017-09-02T22:31:21.093Z,80.80
2017-09-02T22:33:47.063Z,81.00
2017-09-02T22:36:13.294Z,81.10
2017-09-02T22:38:39.308Z,81.20
2017-09-02T22:41:05.336Z,81.60
2017-09-02T22:43:32.195Z,81.70
2017-09-02T22:45:58.607Z,82.40
2017-09-02T22:48:24.840Z,82.60
2017-09-02T22:50:50.963Z,83.10
2017-09-02T22:53:16.981Z,83.90
2017-09-02T22:55:43.930Z,84.40
2017-09-02T22:58:11.050Z,84.50
2017-09-02T23:00:37.020Z,84.70
2017-09-02T23:03:03.039Z,84.90
2017-09-02T23:05:29.039Z,85.50
2017-09-02T23:07:55.799Z,86.00
2017-09-02T23:10:22.327Z,86.70
2017-09-02T23:12:49.053Z,87.10
2017-09-02T23:15:15.928Z,87.60
2017-09-02T23:17:43.219Z,87.90
2017-09-02T23:20:09.279Z,88.00
2017-09-02T23:22:35.313Z,87.60
2017-09-02T23:25:01.364Z,87.40
2017-09-02T23:27:27.644Z,87.30
2017-09-02T23:29:53.856Z,87.50
2017-09-02T23:34:53.469Z,87.80
2017-09-02T23:37:19.520Z,87.80
2017-09-02T23:39:46.150Z,87.70
2017-09-02T23:42:12.079Z,87.40
2017-09-02T23:44:38.327Z,87.80
2017-09-02T23:47:06.195Z,88.10
2017-09-02T23:49:32.213Z,88.70
2017-09-02T23:51:58.209Z,88.70
2017-09-02T23:54:24.287Z,88.60
2017-09-02T23:56:51.126Z,88.70
2017-09-02T23:59:18.108Z,89.40
